Portada
METAR-TAF:

METAR-TAF

Aeroports :

Aeroport Internacional Maiquetía Simón Bolívar

Caracas, Veneçuela

latitud: 10-36N, longitud: 066-59W, altitud: 43 m

Observació

L'informe es va fer fa 26 minuts, a les 19:00 UTC
Vent 5 kt del Est
Temperatura 30°C
Humitat 70%
Pressió 1014 hPa
Visibilitat 10 km o més
Cel ennuvolat a una alçada de 1300 ft

METAR: SVMI 291900Z 09005KT 9999 BKN013 30/24 Q1014

Hora: 15:26 (19:26 UTC)

Pronòstic

L'informe es va fer fa 3 hores i 26 minuts, a les 16:00 UTC
Pronòstic vàlid del 29 a les 18 UTC al 30 a les 18 UTC
Vent 2 kt del Est
Visibilitat 10 km o més
Cel ennuvolat a una alçada de 1300 ft
Probabilitat 30% :
Temporalment
l' 29 a les 18 UTC al 29 a les 22 UTC
Vent 3 kt del Est
Visibilitat: 9000 m
Cel ennuvolat a una alçada de 1300 ft
plugim

TAF: SVMI 291600Z 2918/3018 09002KT 9999 BKN013 TX30/19Z TN23/09Z PROB30 TEMPO 2918/2922 09003KT 9000 -DZ BKN013

Observacions i pronòstics meteorològics de més de 4000 aeroports (METAR i TAF).

Les estacions disponibles són els punts grocs i vermells al mapa.

Posi el ratolí al punt desitjat per veure el nom de l'estació.

Feu clic per veure les observacions i els pronòstics meteorològics.

Per canviar el mapa: feu clic els botons verds amb una creu de color negre per apropar; al botó verd amb un guió per allunyar la imatge; o en les fletxes verdes per a mapes adjacents.


METAR-TAF: